Readville, Massachusetts
Current Conditions -  °F | °C
As of 12:53 AM on Saturday 20 Dec 2014 (Local Time) from KOWD Reporting Station
Clear Clear  
Wind Chill: 27°   Ceiling: Unl
Heat Index: 27°   Visibility: 10mi
Dew Point: 20°   Wind: 0mph
Humidity: 75%   Direction: NA
Pressure: 30.16"   Gusts: NA
Location:  42.24°N, 71.13°W
Report Text: KOWD 200553Z AUTO 00000KT 10SM CLR M03/M07 A3016 RMK AO2 SLP213 T10281067 11006 21033 53012
Loading
Personal Weather Stations






























Interactive Weather Map New forecast layout! Learn more

10-Day Weather Forecast

Advertisements
Track Severe Weather on mobile